Gao Airport


Codes: GAGO/GAQ
Name: Gao Airport
City:
Country: Mali
Elevation: 870 ft.
Wikipedia:

Photos at Gao Airport


   Photos courtesy of SpottingLog. You can add your own sightings and photos by signing up for a free trial today.



No photos found.

Weather at Gao Airport


Time (UTC)DescriptionTempratureWindCloud coverageVisibilityPressureHumidity
21-Jun-2024 12:00Few Clouds39°C9 mph, SW16%10000m1010hPa26%
21-Jun-2024 15:00Few Clouds41°C9 mph, SW14%10000m1007hPa20%
21-Jun-2024 18:00Light Rain37°C13 mph, S57%10000m1007hPa23%
21-Jun-2024 21:00Overcast Clouds34°C9 mph, SE100%10000m1012hPa34%
22-Jun-2024 00:00Overcast Clouds34°C18 mph, SW100%10000m1008hPa32%
22-Jun-2024 03:00Overcast Clouds34°C16 mph, SW95%10000m1006hPa30%
22-Jun-2024 06:00Overcast Clouds33°C7 mph, W93%10000m1008hPa28%
22-Jun-2024 09:00Broken Clouds37°C9 mph, S58%10000m1009hPa24%
22-Jun-2024 12:00Broken Clouds41°C11 mph, SW64%10000m1007hPa18%
22-Jun-2024 15:00Broken Clouds43°C7 mph, SW81%10000m1005hPa14%
22-Jun-2024 18:00Scattered Clouds43°C9 mph, S45%10000m1004hPa14%
22-Jun-2024 21:00Scattered Clouds40°C4 mph, N35%10000m1006hPa18%
23-Jun-2024 00:00Light Rain37°C29 mph, S66%10000m1007hPa25%
23-Jun-2024 03:00Broken Clouds33°C18 mph, SW66%10000m1005hPa31%
23-Jun-2024 06:00Broken Clouds33°C13 mph, SW67%10000m1006hPa33%
23-Jun-2024 09:00Broken Clouds38°C22 mph, S58%10000m1008hPa24%
23-Jun-2024 12:00Broken Clouds40°C18 mph, SW67%10000m1008hPa26%
23-Jun-2024 15:00Overcast Clouds41°C13 mph, SW96%10000m1006hPa23%
23-Jun-2024 18:00Broken Clouds40°C11 mph, SW60%10000m1006hPa24%
23-Jun-2024 21:00Scattered Clouds39°C11 mph, SW30%10000m1007hPa27%
24-Jun-2024 00:00Broken Clouds34°C13 mph, SW58%10000m1007hPa33%
24-Jun-2024 03:00Overcast Clouds34°C7 mph, SW88%10000m1006hPa33%
24-Jun-2024 06:00Broken Clouds33°C11 mph, SW67%10000m1007hPa40%
24-Jun-2024 09:00Clear Sky37°C16 mph, SW8%10000m1009hPa33%
24-Jun-2024 12:00Few Clouds40°C16 mph, SW23%10000m1008hPa26%
24-Jun-2024 15:00Few Clouds42°C13 mph, SW19%10000m1006hPa21%
24-Jun-2024 18:00Scattered Clouds41°C13 mph, SW28%10000m1005hPa22%
24-Jun-2024 21:00Moderate Rain26°C38 mph, NE91%10000m1012hPa67%
25-Jun-2024 00:00Light Rain29°C25 mph, N95%10000m1010hPa46%
25-Jun-2024 03:00Overcast Clouds31°C9 mph, SE100%10000m1007hPa35%
25-Jun-2024 06:00Overcast Clouds32°C7 mph, S100%10000m1008hPa35%
25-Jun-2024 09:00Broken Clouds37°C13 mph, SW75%10000m1008hPa27%
25-Jun-2024 12:00Broken Clouds40°C9 mph, W65%10000m1007hPa22%
25-Jun-2024 15:00Overcast Clouds41°C13 mph, SE90%10000m1005hPa21%
25-Jun-2024 18:00Light Rain33°C20 mph, W95%10000m1005hPa31%
25-Jun-2024 21:00Overcast Clouds35°C4 mph, SW100%10000m1006hPa28%
26-Jun-2024 00:00Overcast Clouds35°C4 mph, SW100%10000m1006hPa28%
26-Jun-2024 03:00Broken Clouds32°C13 mph, S53%10000m1006hPa48%
26-Jun-2024 06:00Broken Clouds31°C16 mph, SW69%10000m1007hPa46%
26-Jun-2024 09:00Overcast Clouds35°C16 mph, SW100%10000m1008hPa36%